sensor_id;sensor_type;location;lat;lon;timestamp;temperature;humidity
40816;DHT22;26535;48.788;9.214;2023-06-14T05:01:36;15.50;78.20
40816;DHT22;26535;48.788;9.214;2023-06-14T05:04:03;15.70;77.30
40816;DHT22;26535;48.788;9.214;2023-06-14T05:06:30;15.70;75.80
40816;DHT22;26535;48.788;9.214;2023-06-14T05:08:57;15.70;74.30
40816;DHT22;26535;48.788;9.214;2023-06-14T05:11:23;15.80;75.80
40816;DHT22;26535;48.788;9.214;2023-06-14T05:13:50;15.80;75.50
40816;DHT22;26535;48.788;9.214;2023-06-14T05:16:17;15.80;74.10
40816;DHT22;26535;48.788;9.214;2023-06-14T05:18:45;15.80;73.60
40816;DHT22;26535;48.788;9.214;2023-06-14T05:21:13;15.80;73.20
40816;DHT22;26535;48.788;9.214;2023-06-14T05:23:41;15.80;73.60
40816;DHT22;26535;48.788;9.214;2023-06-14T05:26:07;15.80;72.60
40816;DHT22;26535;48.788;9.214;2023-06-14T05:28:33;15.80;71.40
40816;DHT22;26535;48.788;9.214;2023-06-14T05:30:58;15.90;72.90
40816;DHT22;26535;48.788;9.214;2023-06-14T05:33:24;16.00;73.60
40816;DHT22;26535;48.788;9.214;2023-06-14T05:35:50;16.20;73.10
40816;DHT22;26535;48.788;9.214;2023-06-14T05:38:16;16.30;73.10
40816;DHT22;26535;48.788;9.214;2023-06-14T05:40:41;16.50;72.90
40816;DHT22;26535;48.788;9.214;2023-06-14T05:43:07;16.60;72.20
40816;DHT22;26535;48.788;9.214;2023-06-14T05:45:33;16.80;70.80
40816;DHT22;26535;48.788;9.214;2023-06-14T05:47:58;16.90;70.80
40816;DHT22;26535;48.788;9.214;2023-06-14T05:50:24;17.00;69.70
40816;DHT22;26535;48.788;9.214;2023-06-14T05:52:50;17.10;70.40
40816;DHT22;26535;48.788;9.214;2023-06-14T05:55:17;17.20;70.60
40816;DHT22;26535;48.788;9.214;2023-06-14T05:57:43;17.20;70.30
40816;DHT22;26535;48.788;9.214;2023-06-14T06:00:09;17.20;70.70
40816;DHT22;26535;48.788;9.214;2023-06-14T06:02:43;17.10;70.10
40816;DHT22;26535;48.788;9.214;2023-06-14T06:05:09;17.20;70.60
40816;DHT22;26535;48.788;9.214;2023-06-14T06:07:36;17.20;70.90
40816;DHT22;26535;48.788;9.214;2023-06-14T06:10:03;17.30;71.30
40816;DHT22;26535;48.788;9.214;2023-06-14T06:12:29;17.40;71.00
40816;DHT22;26535;48.788;9.214;2023-06-14T06:14:54;17.50;70.20
40816;DHT22;26535;48.788;9.214;2023-06-14T06:17:20;17.60;69.90
40816;DHT22;26535;48.788;9.214;2023-06-14T06:19:46;17.80;69.70
40816;DHT22;26535;48.788;9.214;2023-06-14T06:22:12;18.00;70.20
40816;DHT22;26535;48.788;9.214;2023-06-14T06:24:38;18.10;71.70
40816;DHT22;26535;48.788;9.214;2023-06-14T06:27:04;18.30;69.00
40816;DHT22;26535;48.788;9.214;2023-06-14T06:29:29;18.40;68.30
40816;DHT22;26535;48.788;9.214;2023-06-14T06:31:55;18.40;67.80
40816;DHT22;26535;48.788;9.214;2023-06-14T06:34:22;18.50;68.20
40816;DHT22;26535;48.788;9.214;2023-06-14T06:36:47;18.70;68.80
40816;DHT22;26535;48.788;9.214;2023-06-14T06:39:13;18.80;67.30
40816;DHT22;26535;48.788;9.214;2023-06-14T06:41:40;18.90;67.50
40816;DHT22;26535;48.788;9.214;2023-06-14T06:44:07;19.00;65.40
40816;DHT22;26535;48.788;9.214;2023-06-14T06:46:33;19.10;64.50
40816;DHT22;26535;48.788;9.214;2023-06-14T06:48:59;19.20;66.20
40816;DHT22;26535;48.788;9.214;2023-06-14T06:51:25;19.50;65.20
40816;DHT22;26535;48.788;9.214;2023-06-14T06:53:54;19.60;64.20
40816;DHT22;26535;48.788;9.214;2023-06-14T06:56:21;19.70;64.30
40816;DHT22;26535;48.788;9.214;2023-06-14T06:58:51;19.70;62.80
40816;DHT22;26535;48.788;9.214;2023-06-14T07:01:17;19.70;63.00
40816;DHT22;26535;48.788;9.214;2023-06-14T07:03:45;19.70;62.40
40816;DHT22;26535;48.788;9.214;2023-06-14T07:06:11;19.80;65.00
40816;DHT22;26535;48.788;9.214;2023-06-14T07:08:37;19.80;63.50
40816;DHT22;26535;48.788;9.214;2023-06-14T07:11:06;20.00;62.80
40816;DHT22;26535;48.788;9.214;2023-06-14T07:13:32;20.10;62.10
40816;DHT22;26535;48.788;9.214;2023-06-14T07:15:59;20.00;60.80
40816;DHT22;26535;48.788;9.214;2023-06-14T07:18:26;20.00;61.10
40816;DHT22;26535;48.788;9.214;2023-06-14T07:20:55;20.00;62.10
40816;DHT22;26535;48.788;9.214;2023-06-14T07:23:21;20.00;61.60
40816;DHT22;26535;48.788;9.214;2023-06-14T07:25:47;19.90;62.60
40816;DHT22;26535;48.788;9.214;2023-06-14T07:28:12;20.00;62.30
40816;DHT22;26535;48.788;9.214;2023-06-14T07:30:38;20.00;62.10
40816;DHT22;26535;48.788;9.214;2023-06-14T07:33:04;20.00;61.50
40816;DHT22;26535;48.788;9.214;2023-06-14T07:35:29;20.00;62.10
40816;DHT22;26535;48.788;9.214;2023-06-14T07:37:55;20.00;61.60
40816;DHT22;26535;48.788;9.214;2023-06-14T07:40:21;20.20;60.90
40816;DHT22;26535;48.788;9.214;2023-06-14T07:42:47;20.30;60.90
40816;DHT22;26535;48.788;9.214;2023-06-14T07:45:15;20.30;60.20
40816;DHT22;26535;48.788;9.214;2023-06-14T07:47:41;20.40;60.10
40816;DHT22;26535;48.788;9.214;2023-06-14T07:50:07;20.30;60.90
40816;DHT22;26535;48.788;9.214;2023-06-14T07:52:35;20.20;61.50
40816;DHT22;26535;48.788;9.214;2023-06-14T07:55:01;20.30;61.00
40816;DHT22;26535;48.788;9.214;2023-06-14T07:57:26;20.40;62.60
40816;DHT22;26535;48.788;9.214;2023-06-14T07:59:52;20.60;61.50
40816;DHT22;26535;48.788;9.214;2023-06-14T08:02:18;20.80;61.60
40816;DHT22;26535;48.788;9.214;2023-06-14T08:04:44;20.70;61.20
40816;DHT22;26535;48.788;9.214;2023-06-14T08:07:09;20.80;61.90
40816;DHT22;26535;48.788;9.214;2023-06-14T08:09:36;20.90;61.40
40816;DHT22;26535;48.788;9.214;2023-06-14T08:12:05;20.70;61.90
40816;DHT22;26535;48.788;9.214;2023-06-14T08:14:38;20.90;61.50
40816;DHT22;26535;48.788;9.214;2023-06-14T08:17:04;21.00;62.10
40816;DHT22;26535;48.788;9.214;2023-06-14T08:19:30;21.10;62.40
40816;DHT22;26535;48.788;9.214;2023-06-14T08:21:56;21.20;62.40
40816;DHT22;26535;48.788;9.214;2023-06-14T08:24:22;21.40;62.50
40816;DHT22;26535;48.788;9.214;2023-06-14T08:26:53;21.50;61.60
40816;DHT22;26535;48.788;9.214;2023-06-14T08:29:18;21.70;60.90
40816;DHT22;26535;48.788;9.214;2023-06-14T08:31:44;21.70;61.40
40816;DHT22;26535;48.788;9.214;2023-06-14T08:34:10;21.80;61.30
40816;DHT22;26535;48.788;9.214;2023-06-14T08:36:36;22.00;61.20
40816;DHT22;26535;48.788;9.214;2023-06-14T08:39:02;22.10;60.00
40816;DHT22;26535;48.788;9.214;2023-06-14T08:41:28;22.20;60.70
40816;DHT22;26535;48.788;9.214;2023-06-14T08:43:55;22.30;60.50
40816;DHT22;26535;48.788;9.214;2023-06-14T08:46:24;22.50;59.80
40816;DHT22;26535;48.788;9.214;2023-06-14T08:48:53;22.50;59.50
40816;DHT22;26535;48.788;9.214;2023-06-14T08:51:22;22.70;59.20
40816;DHT22;26535;48.788;9.214;2023-06-14T08:53:54;22.70;57.70
40816;DHT22;26535;48.788;9.214;2023-06-14T08:56:33;23.00;57.80
40816;DHT22;26535;48.788;9.214;2023-06-14T08:59:00;23.10;57.10
40816;DHT22;26535;48.788;9.214;2023-06-14T09:01:33;23.20;58.10
40816;DHT22;26535;48.788;9.214;2023-06-14T09:04:00;23.30;57.20
40816;DHT22;26535;48.788;9.214;2023-06-14T09:06:26;23.30;57.10
40816;DHT22;26535;48.788;9.214;2023-06-14T09:08:55;23.50;57.70
40816;DHT22;26535;48.788;9.214;2023-06-14T09:11:23;23.50;57.20
40816;DHT22;26535;48.788;9.214;2023-06-14T09:13:49;23.40;56.90
40816;DHT22;26535;48.788;9.214;2023-06-14T09:16:16;23.40;56.50
40816;DHT22;26535;48.788;9.214;2023-06-14T09:18:46;23.40;56.90
40816;DHT22;26535;48.788;9.214;2023-06-14T09:21:16;23.60;56.30
40816;DHT22;26535;48.788;9.214;2023-06-14T09:23:46;23.50;56.00
40816;DHT22;26535;48.788;9.214;2023-06-14T09:26:21;23.60;57.20
40816;DHT22;26535;48.788;9.214;2023-06-14T09:28:49;23.70;56.40
40816;DHT22;26535;48.788;9.214;2023-06-14T09:31:20;23.70;55.60
40816;DHT22;26535;48.788;9.214;2023-06-14T09:33:47;23.50;56.60
40816;DHT22;26535;48.788;9.214;2023-06-14T09:36:21;23.70;56.50
40816;DHT22;26535;48.788;9.214;2023-06-14T09:38:58;23.60;55.70
40816;DHT22;26535;48.788;9.214;2023-06-14T09:41:40;23.70;55.80
40816;DHT22;26535;48.788;9.214;2023-06-14T09:44:07;23.80;54.20
40816;DHT22;26535;48.788;9.214;2023-06-14T09:46:34;23.90;54.60
40816;DHT22;26535;48.788;9.214;2023-06-14T09:49:02;24.00;54.00
40816;DHT22;26535;48.788;9.214;2023-06-14T09:51:28;24.20;52.50
40816;DHT22;26535;48.788;9.214;2023-06-14T09:53:59;24.20;52.60
40816;DHT22;26535;48.788;9.214;2023-06-14T09:56:31;24.40;53.60
40816;DHT22;26535;48.788;9.214;2023-06-14T09:58:58;24.70;54.00
40816;DHT22;26535;48.788;9.214;2023-06-14T10:01:29;25.00;53.20
40816;DHT22;26535;48.788;9.214;2023-06-14T10:04:00;25.10;51.40
40816;DHT22;26535;48.788;9.214;2023-06-14T10:06:28;25.50;51.30
40816;DHT22;26535;48.788;9.214;2023-06-14T10:08:57;25.70;49.60
40816;DHT22;26535;48.788;9.214;2023-06-14T10:11:25;25.80;49.80
40816;DHT22;26535;48.788;9.214;2023-06-14T10:13:51;26.10;49.40
40816;DHT22;26535;48.788;9.214;2023-06-14T10:18:59;26.50;46.40
40816;DHT22;26535;48.788;9.214;2023-06-14T10:21:46;26.50;46.60
40816;DHT22;26535;48.788;9.214;2023-06-14T10:24:17;26.60;47.50
40816;DHT22;26535;48.788;9.214;2023-06-14T10:26:58;26.60;48.50
40816;DHT22;26535;48.788;9.214;2023-06-14T10:29:24;26.60;49.40
40816;DHT22;26535;48.788;9.214;2023-06-14T10:31:58;26.60;47.80
40816;DHT22;26535;48.788;9.214;2023-06-14T10:34:26;26.50;48.70
40816;DHT22;26535;48.788;9.214;2023-06-14T10:37:06;26.60;48.00
40816;DHT22;26535;48.788;9.214;2023-06-14T10:39:37;26.30;48.60
40816;DHT22;26535;48.788;9.214;2023-06-14T10:42:03;25.90;51.20
40816;DHT22;26535;48.788;9.214;2023-06-14T10:47:56;25.60;51.60
40816;DHT22;26535;48.788;9.214;2023-06-14T10:50:05;25.40;52.20
40816;DHT22;26535;48.788;9.214;2023-06-14T10:52:34;25.30;52.30
40816;DHT22;26535;48.788;9.214;2023-06-14T10:55:12;25.40;51.90
40816;DHT22;26535;48.788;9.214;2023-06-14T10:57:44;25.80;51.20
40816;DHT22;26535;48.788;9.214;2023-06-14T11:00:18;26.00;51.60
40816;DHT22;26535;48.788;9.214;2023-06-14T11:03:15;25.80;50.90
40816;DHT22;26535;48.788;9.214;2023-06-14T11:11:17;25.70;50.00
40816;DHT22;26535;48.788;9.214;2023-06-14T11:13:45;26.10;50.00
40816;DHT22;26535;48.788;9.214;2023-06-14T11:16:20;26.10;49.70
40816;DHT22;26535;48.788;9.214;2023-06-14T11:18:49;26.30;49.20
40816;DHT22;26535;48.788;9.214;2023-06-14T11:21:18;26.60;48.40
40816;DHT22;26535;48.788;9.214;2023-06-14T11:23:53;26.60;48.40
40816;DHT22;26535;48.788;9.214;2023-06-14T11:26:28;26.60;48.20
40816;DHT22;26535;48.788;9.214;2023-06-14T11:28:59;26.80;47.60
40816;DHT22;26535;48.788;9.214;2023-06-14T11:31:26;26.90;47.50
40816;DHT22;26535;48.788;9.214;2023-06-14T11:33:56;27.10;47.10
40816;DHT22;26535;48.788;9.214;2023-06-14T11:36:23;27.50;47.40
40816;DHT22;26535;48.788;9.214;2023-06-14T11:38:48;27.80;47.50
40816;DHT22;26535;48.788;9.214;2023-06-14T11:41:14;28.20;46.90
40816;DHT22;26535;48.788;9.214;2023-06-14T11:43:40;28.80;45.80
40816;DHT22;26535;48.788;9.214;2023-06-14T11:46:13;29.10;45.10
40816;DHT22;26535;48.788;9.214;2023-06-14T11:48:43;29.90;44.90
40816;DHT22;26535;48.788;9.214;2023-06-14T11:51:08;30.40;44.10
40816;DHT22;26535;48.788;9.214;2023-06-14T11:53:34;31.30;43.50
40816;DHT22;26535;48.788;9.214;2023-06-14T11:56:01;32.70;43.20
40816;DHT22;26535;48.788;9.214;2023-06-14T11:58:27;33.80;41.50
40816;DHT22;26535;48.788;9.214;2023-06-14T12:00:54;33.70;40.80
40816;DHT22;26535;48.788;9.214;2023-06-14T12:03:24;34.90;41.00
40816;DHT22;26535;48.788;9.214;2023-06-14T12:06:04;35.60;40.10
40816;DHT22;26535;48.788;9.214;2023-06-14T12:08:37;36.00;39.80
40816;DHT22;26535;48.788;9.214;2023-06-14T12:11:14;36.40;40.20
40816;DHT22;26535;48.788;9.214;2023-06-14T12:13:43;36.40;39.80
40816;DHT22;26535;48.788;9.214;2023-06-14T12:16:10;37.20;39.60
40816;DHT22;26535;48.788;9.214;2023-06-14T12:18:37;36.80;39.40
40816;DHT22;26535;48.788;9.214;2023-06-14T12:21:07;37.00;39.60
40816;DHT22;26535;48.788;9.214;2023-06-14T12:23:43;37.90;39.50
40816;DHT22;26535;48.788;9.214;2023-06-14T12:26:09;38.40;38.30
40816;DHT22;26535;48.788;9.214;2023-06-14T12:28:34;38.70;38.40
40816;DHT22;26535;48.788;9.214;2023-06-14T12:31:00;39.10;38.10
40816;DHT22;26535;48.788;9.214;2023-06-14T12:33:26;39.50;37.10
40816;DHT22;26535;48.788;9.214;2023-06-14T12:35:55;39.10;37.40
40816;DHT22;26535;48.788;9.214;2023-06-14T12:38:22;39.30;37.80
40816;DHT22;26535;48.788;9.214;2023-06-14T12:40:47;39.50;37.50
40816;DHT22;26535;48.788;9.214;2023-06-14T12:43:13;40.30;37.60
40816;DHT22;26535;48.788;9.214;2023-06-14T12:45:39;40.70;37.10
40816;DHT22;26535;48.788;9.214;2023-06-14T12:48:04;40.70;36.80
40816;DHT22;26535;48.788;9.214;2023-06-14T12:50:30;41.30;36.90
40816;DHT22;26535;48.788;9.214;2023-06-14T12:52:56;40.60;36.10
40816;DHT22;26535;48.788;9.214;2023-06-14T12:55:22;39.50;36.80
40816;DHT22;26535;48.788;9.214;2023-06-14T12:57:47;38.00;38.20
40816;DHT22;26535;48.788;9.214;2023-06-14T13:00:15;38.40;37.60
40816;DHT22;26535;48.788;9.214;2023-06-14T13:02:43;39.20;38.20
40816;DHT22;26535;48.788;9.214;2023-06-14T13:05:09;40.10;36.70
40816;DHT22;26535;48.788;9.214;2023-06-14T13:07:35;39.70;36.40
40816;DHT22;26535;48.788;9.214;2023-06-14T13:10:01;41.20;36.70
40816;DHT22;26535;48.788;9.214;2023-06-14T13:12:26;42.50;36.70
40816;DHT22;26535;48.788;9.214;2023-06-14T13:14:52;42.30;36.50
40816;DHT22;26535;48.788;9.214;2023-06-14T13:17:18;41.90;35.90
40816;DHT22;26535;48.788;9.214;2023-06-14T13:19:43;42.10;36.30
40816;DHT22;26535;48.788;9.214;2023-06-14T13:22:09;42.90;35.80
40816;DHT22;26535;48.788;9.214;2023-06-14T13:24:35;42.70;36.20
40816;DHT22;26535;48.788;9.214;2023-06-14T13:27:01;42.20;35.50
40816;DHT22;26535;48.788;9.214;2023-06-14T13:29:27;40.80;36.20
40816;DHT22;26535;48.788;9.214;2023-06-14T13:31:53;39.90;36.70
40816;DHT22;26535;48.788;9.214;2023-06-14T13:34:19;37.80;37.60
40816;DHT22;26535;48.788;9.214;2023-06-14T13:36:45;36.20;39.10
40816;DHT22;26535;48.788;9.214;2023-06-14T13:39:11;34.90;40.40
40816;DHT22;26535;48.788;9.214;2023-06-14T13:41:37;34.90;40.50
40816;DHT22;26535;48.788;9.214;2023-06-14T13:44:03;36.00;39.10
40816;DHT22;26535;48.788;9.214;2023-06-14T13:46:30;35.40;39.10
40816;DHT22;26535;48.788;9.214;2023-06-14T13:48:56;35.50;39.60
40816;DHT22;26535;48.788;9.214;2023-06-14T13:51:22;36.80;39.50
40816;DHT22;26535;48.788;9.214;2023-06-14T13:53:49;38.40;38.70
40816;DHT22;26535;48.788;9.214;2023-06-14T13:56:15;40.20;37.30
40816;DHT22;26535;48.788;9.214;2023-06-14T13:58:41;41.10;36.40
40816;DHT22;26535;48.788;9.214;2023-06-14T14:01:08;41.50;35.80
40816;DHT22;26535;48.788;9.214;2023-06-14T14:03:34;38.90;36.70
40816;DHT22;26535;48.788;9.214;2023-06-14T14:06:01;39.40;37.30
40816;DHT22;26535;48.788;9.214;2023-06-14T14:08:27;40.70;37.40
40816;DHT22;26535;48.788;9.214;2023-06-14T14:10:53;42.40;36.70
40816;DHT22;26535;48.788;9.214;2023-06-14T14:13:19;42.30;36.30
40816;DHT22;26535;48.788;9.214;2023-06-14T14:15:46;42.90;36.30
40816;DHT22;26535;48.788;9.214;2023-06-14T14:18:12;41.90;36.40
40816;DHT22;26535;48.788;9.214;2023-06-14T14:20:37;40.20;36.90
40816;DHT22;26535;48.788;9.214;2023-06-14T14:23:04;38.60;37.50
40816;DHT22;26535;48.788;9.214;2023-06-14T14:25:30;37.90;38.00
40816;DHT22;26535;48.788;9.214;2023-06-14T14:27:55;37.70;38.80
40816;DHT22;26535;48.788;9.214;2023-06-14T14:30:21;37.20;38.40
40816;DHT22;26535;48.788;9.214;2023-06-14T14:32:49;35.90;39.30
40816;DHT22;26535;48.788;9.214;2023-06-14T14:35:17;34.70;39.70
40816;DHT22;26535;48.788;9.214;2023-06-14T14:37:43;33.90;41.00
40816;DHT22;26535;48.788;9.214;2023-06-14T14:40:09;33.70;40.90
40816;DHT22;26535;48.788;9.214;2023-06-14T14:42:36;34.00;41.30
40816;DHT22;26535;48.788;9.214;2023-06-14T14:45:02;35.10;40.70
40816;DHT22;26535;48.788;9.214;2023-06-14T14:47:28;35.30;39.70
40816;DHT22;26535;48.788;9.214;2023-06-14T14:49:54;36.50;39.10
40816;DHT22;26535;48.788;9.214;2023-06-14T14:52:20;38.20;38.10
40816;DHT22;26535;48.788;9.214;2023-06-14T14:54:46;40.20;37.10
40816;DHT22;26535;48.788;9.214;2023-06-14T14:57:11;41.40;36.00
40816;DHT22;26535;48.788;9.214;2023-06-14T14:59:37;42.10;35.90
40816;DHT22;26535;48.788;9.214;2023-06-14T15:02:03;43.50;35.40
40816;DHT22;26535;48.788;9.214;2023-06-14T15:04:29;44.10;34.90
40816;DHT22;26535;48.788;9.214;2023-06-14T15:06:54;44.10;35.00
40816;DHT22;26535;48.788;9.214;2023-06-14T15:09:20;42.90;35.40
40816;DHT22;26535;48.788;9.214;2023-06-14T15:11:46;43.10;35.70
40816;DHT22;26535;48.788;9.214;2023-06-14T15:14:11;42.90;35.60
40816;DHT22;26535;48.788;9.214;2023-06-14T15:16:37;43.10;35.60
40816;DHT22;26535;48.788;9.214;2023-06-14T15:19:03;43.40;35.70
40816;DHT22;26535;48.788;9.214;2023-06-14T15:21:29;44.10;35.10
40816;DHT22;26535;48.788;9.214;2023-06-14T15:23:54;44.20;35.20
40816;DHT22;26535;48.788;9.214;2023-06-14T15:26:20;44.80;35.60
40816;DHT22;26535;48.788;9.214;2023-06-14T15:28:46;44.60;34.90
40816;DHT22;26535;48.788;9.214;2023-06-14T15:31:12;44.90;35.10
40816;DHT22;26535;48.788;9.214;2023-06-14T15:33:37;44.20;34.80
40816;DHT22;26535;48.788;9.214;2023-06-14T15:36:05;43.50;35.40
40816;DHT22;26535;48.788;9.214;2023-06-14T15:38:31;43.00;35.10
40816;DHT22;26535;48.788;9.214;2023-06-14T15:40:58;43.50;34.90
40816;DHT22;26535;48.788;9.214;2023-06-14T15:43:23;43.70;35.00
40816;DHT22;26535;48.788;9.214;2023-06-14T15:45:49;43.50;34.80
40816;DHT22;26535;48.788;9.214;2023-06-14T15:48:15;43.10;35.00
40816;DHT22;26535;48.788;9.214;2023-06-14T15:50:40;42.70;35.30
40816;DHT22;26535;48.788;9.214;2023-06-14T15:53:06;42.50;35.30
40816;DHT22;26535;48.788;9.214;2023-06-14T15:55:32;42.70;35.40
40816;DHT22;26535;48.788;9.214;2023-06-14T15:57:57;43.50;35.00
40816;DHT22;26535;48.788;9.214;2023-06-14T16:00:23;44.20;34.70
40816;DHT22;26535;48.788;9.214;2023-06-14T16:02:53;44.20;34.40
40816;DHT22;26535;48.788;9.214;2023-06-14T16:05:19;43.60;34.40
40816;DHT22;26535;48.788;9.214;2023-06-14T16:07:45;44.10;34.30
40816;DHT22;26535;48.788;9.214;2023-06-14T16:10:11;43.50;34.50
40816;DHT22;26535;48.788;9.214;2023-06-14T16:12:36;44.20;34.40
40816;DHT22;26535;48.788;9.214;2023-06-14T16:15:02;44.50;34.00
40816;DHT22;26535;48.788;9.214;2023-06-14T16:17:53;44.30;33.90
40816;DHT22;26535;48.788;9.214;2023-06-14T16:20:44;44.30;34.10
40816;DHT22;26535;48.788;9.214;2023-06-14T16:23:10;43.90;34.40
40816;DHT22;26535;48.788;9.214;2023-06-14T16:25:36;44.10;35.00
40816;DHT22;26535;48.788;9.214;2023-06-14T16:28:02;44.20;34.90
40816;DHT22;26535;48.788;9.214;2023-06-14T16:30:28;44.00;34.50
40816;DHT22;26535;48.788;9.214;2023-06-14T16:32:54;43.60;34.60
40816;DHT22;26535;48.788;9.214;2023-06-14T16:35:19;44.30;34.50
40816;DHT22;26535;48.788;9.214;2023-06-14T16:37:45;44.20;34.60
40816;DHT22;26535;48.788;9.214;2023-06-14T16:40:11;42.40;35.10
40816;DHT22;26535;48.788;9.214;2023-06-14T16:42:37;40.20;36.10
40816;DHT22;26535;48.788;9.214;2023-06-14T16:45:03;39.60;36.80
40816;DHT22;26535;48.788;9.214;2023-06-14T16:47:29;39.70;36.50
40816;DHT22;26535;48.788;9.214;2023-06-14T16:49:55;39.60;36.90
40816;DHT22;26535;48.788;9.214;2023-06-14T16:52:21;39.60;36.80
40816;DHT22;26535;48.788;9.214;2023-06-14T16:54:46;38.00;37.30
40816;DHT22;26535;48.788;9.214;2023-06-14T16:57:12;35.90;38.60
40816;DHT22;26535;48.788;9.214;2023-06-14T16:59:38;33.90;40.00
40816;DHT22;26535;48.788;9.214;2023-06-14T17:02:04;32.90;41.90
40816;DHT22;26535;48.788;9.214;2023-06-14T17:04:30;32.10;42.00
40816;DHT22;26535;48.788;9.214;2023-06-14T17:06:57;31.60;43.10
40816;DHT22;26535;48.788;9.214;2023-06-14T17:09:23;31.20;42.50
40816;DHT22;26535;48.788;9.214;2023-06-14T17:11:49;31.80;42.30
40816;DHT22;26535;48.788;9.214;2023-06-14T17:14:14;33.40;41.10
40816;DHT22;26535;48.788;9.214;2023-06-14T17:16:40;34.70;40.30
40816;DHT22;26535;48.788;9.214;2023-06-14T17:19:06;36.00;39.80
40816;DHT22;26535;48.788;9.214;2023-06-14T17:21:32;36.60;39.10
40816;DHT22;26535;48.788;9.214;2023-06-14T17:23:58;37.20;38.40
40816;DHT22;26535;48.788;9.214;2023-06-14T17:26:24;37.40;38.40
40816;DHT22;26535;48.788;9.214;2023-06-14T17:28:56;37.50;38.80
40816;DHT22;26535;48.788;9.214;2023-06-14T17:31:22;37.70;38.70
40816;DHT22;26535;48.788;9.214;2023-06-14T17:33:47;37.60;38.60
40816;DHT22;26535;48.788;9.214;2023-06-14T17:36:13;37.60;38.30
40816;DHT22;26535;48.788;9.214;2023-06-14T17:38:39;37.20;38.20
40816;DHT22;26535;48.788;9.214;2023-06-14T17:41:05;37.20;38.40
40816;DHT22;26535;48.788;9.214;2023-06-14T17:43:36;37.20;38.40
40816;DHT22;26535;48.788;9.214;2023-06-14T17:46:02;37.50;38.60
40816;DHT22;26535;48.788;9.214;2023-06-14T17:48:31;37.60;38.20
40816;DHT22;26535;48.788;9.214;2023-06-14T17:51:02;37.20;38.40
40816;DHT22;26535;48.788;9.214;2023-06-14T17:53:32;36.80;39.10
40816;DHT22;26535;48.788;9.214;2023-06-14T17:55:58;36.50;38.80
40816;DHT22;26535;48.788;9.214;2023-06-14T17:58:24;36.20;39.10
40816;DHT22;26535;48.788;9.214;2023-06-14T18:00:50;36.00;39.10
40816;DHT22;26535;48.788;9.214;2023-06-14T18:03:17;35.60;39.50
40816;DHT22;26535;48.788;9.214;2023-06-14T18:05:43;35.10;40.00
40816;DHT22;26535;48.788;9.214;2023-06-14T18:08:10;34.90;40.50
40816;DHT22;26535;48.788;9.214;2023-06-14T18:10:36;34.40;40.60
40816;DHT22;26535;48.788;9.214;2023-06-14T18:13:03;33.90;41.30
40816;DHT22;26535;48.788;9.214;2023-06-14T18:15:29;33.70;41.80
40816;DHT22;26535;48.788;9.214;2023-06-14T18:17:54;33.60;42.00
40816;DHT22;26535;48.788;9.214;2023-06-14T18:20:23;33.10;42.40
40816;DHT22;26535;48.788;9.214;2023-06-14T18:22:49;32.80;42.60
40816;DHT22;26535;48.788;9.214;2023-06-14T18:25:16;32.70;43.00
40816;DHT22;26535;48.788;9.214;2023-06-14T18:27:46;32.70;42.90
40816;DHT22;26535;48.788;9.214;2023-06-14T18:30:13;32.60;43.00
40816;DHT22;26535;48.788;9.214;2023-06-14T18:32:39;31.90;43.50
40816;DHT22;26535;48.788;9.214;2023-06-14T18:35:06;31.10;44.30
40816;DHT22;26535;48.788;9.214;2023-06-14T18:37:33;30.10;45.60
40816;DHT22;26535;48.788;9.214;2023-06-14T18:39:59;28.90;46.80
40816;DHT22;26535;48.788;9.214;2023-06-14T18:42:26;28.10;47.90
40816;DHT22;26535;48.788;9.214;2023-06-14T18:44:51;27.70;48.90
40816;DHT22;26535;48.788;9.214;2023-06-14T18:47:17;27.30;49.30
40816;DHT22;26535;48.788;9.214;2023-06-14T18:49:43;27.00;49.90
40816;DHT22;26535;48.788;9.214;2023-06-14T18:52:09;26.60;50.00
40816;DHT22;26535;48.788;9.214;2023-06-14T18:54:35;26.20;50.80
40816;DHT22;26535;48.788;9.214;2023-06-14T18:57:01;25.90;51.20
40816;DHT22;26535;48.788;9.214;2023-06-14T18:59:27;25.70;51.70
40816;DHT22;26535;48.788;9.214;2023-06-14T19:01:53;25.40;52.10
40816;DHT22;26535;48.788;9.214;2023-06-14T19:04:20;25.30;52.50
40816;DHT22;26535;48.788;9.214;2023-06-14T19:06:47;25.10;52.60
40816;DHT22;26535;48.788;9.214;2023-06-14T19:09:13;24.90;53.00
40816;DHT22;26535;48.788;9.214;2023-06-14T19:11:40;24.80;53.40
40816;DHT22;26535;48.788;9.214;2023-06-14T19:14:08;24.70;53.60
40816;DHT22;26535;48.788;9.214;2023-06-14T19:16:34;24.50;54.10
40816;DHT22;26535;48.788;9.214;2023-06-14T19:19:00;24.30;54.50
40816;DHT22;26535;48.788;9.214;2023-06-14T19:21:28;24.10;54.80
40816;DHT22;26535;48.788;9.214;2023-06-14T19:23:54;24.00;55.10
40816;DHT22;26535;48.788;9.214;2023-06-14T19:26:21;23.90;55.50
40816;DHT22;26535;48.788;9.214;2023-06-14T19:28:50;23.80;55.80
40816;DHT22;26535;48.788;9.214;2023-06-14T19:31:16;23.70;56.10
40816;DHT22;26535;48.788;9.214;2023-06-14T19:33:42;23.50;56.20
40816;DHT22;26535;48.788;9.214;2023-06-14T19:36:08;23.40;56.40
40816;DHT22;26535;48.788;9.214;2023-06-14T19:38:34;23.30;56.80
40816;DHT22;26535;48.788;9.214;2023-06-14T19:40:59;23.20;57.10
40816;DHT22;26535;48.788;9.214;2023-06-14T19:43:25;23.20;57.20
40816;DHT22;26535;48.788;9.214;2023-06-14T19:45:51;23.10;57.40
40816;DHT22;26535;48.788;9.214;2023-06-14T19:48:17;23.00;57.30
40816;DHT22;26535;48.788;9.214;2023-06-14T19:50:42;23.00;57.60
40816;DHT22;26535;48.788;9.214;2023-06-14T19:53:10;23.00;58.10
40816;DHT22;26535;48.788;9.214;2023-06-14T19:55:36;22.90;57.90
40816;DHT22;26535;48.788;9.214;2023-06-14T19:58:02;22.80;58.40
40816;DHT22;26535;48.788;9.214;2023-06-14T20:00:28;22.70;58.30
40816;DHT22;26535;48.788;9.214;2023-06-14T20:02:54;22.50;58.70
40816;DHT22;26535;48.788;9.214;2023-06-14T20:05:20;22.50;58.70
40816;DHT22;26535;48.788;9.214;2023-06-14T20:07:45;22.40;59.00
40816;DHT22;26535;48.788;9.214;2023-06-14T20:10:11;22.30;59.10
40816;DHT22;26535;48.788;9.214;2023-06-14T20:12:40;22.20;59.40
40816;DHT22;26535;48.788;9.214;2023-06-14T20:15:08;22.20;59.60
40816;DHT22;26535;48.788;9.214;2023-06-14T20:17:34;22.10;59.60
40816;DHT22;26535;48.788;9.214;2023-06-14T20:20:00;22.10;59.60
40816;DHT22;26535;48.788;9.214;2023-06-14T20:22:25;22.00;60.00
40816;DHT22;26535;48.788;9.214;2023-06-14T20:24:51;21.90;60.10
40816;DHT22;26535;48.788;9.214;2023-06-14T20:27:17;21.80;60.10
40816;DHT22;26535;48.788;9.214;2023-06-14T20:29:42;21.80;60.10
40816;DHT22;26535;48.788;9.214;2023-06-14T20:32:08;21.90;60.60
40816;DHT22;26535;48.788;9.214;2023-06-14T20:34:34;21.80;60.10
40816;DHT22;26535;48.788;9.214;2023-06-14T20:37:00;21.80;60.60
40816;DHT22;26535;48.788;9.214;2023-06-14T20:39:26;21.80;60.30
40816;DHT22;26535;48.788;9.214;2023-06-14T20:41:51;21.80;60.40